Time;durP1;ratioP1;P1;durP2;ratioP2;P2;SDS_P1;SDS_P2;PMS_P1;PMS_P2;Temp;Humidity;BMP_temperature;BMP_pressure;BME280_temperature;BME280_humidity;BME280_pressure;Samples;Min_cycle;Max_cycle;Signal;HPM_P1;HPM_P2
2022/06/12 00:02:05;;;;;;;6.90;3.70;;;;;;;23.73;43.94;100673.34;5359125;32;33488;-77
2022/06/12 00:05:07;;;;;;;6.87;3.70;;;;;;;22.65;45.82;100667.56;5352260;32;34194;-69
2022/06/12 00:08:10;;;;;;;6.55;3.45;;;;;;;22.77;45.36;100673.72;5346244;32;34207;-75
2022/06/12 00:11:15;;;;;;;6.50;3.40;;;;;;;22.90;44.58;100671.72;5364153;32;35422;-76
2022/06/12 00:14:18;;;;;;;5.20;3.40;;;;;;;22.56;45.06;100665.69;5349119;32;34521;-68
2022/06/12 00:17:20;;;;;;;4.53;3.22;;;;;;;22.71;44.18;100659.84;5363709;32;46999;-76
2022/06/12 00:20:25;;;;;;;6.35;3.22;;;;;;;22.98;43.10;100663.84;5347703;32;36417;-76
2022/06/12 00:23:27;;;;;;;6.20;3.30;;;;;;;23.30;42.41;100661.03;5351317;32;35219;-68
2022/06/12 00:26:38;;;;;;;6.75;3.37;;;;;;;23.37;41.79;100653.28;5339116;32;37245;-68
2022/06/12 00:29:41;;;;;;;4.53;3.12;;;;;;;22.38;44.26;100666.25;5348849;32;34704;-78
2022/06/12 00:32:49;;;;;;;6.00;3.45;;;;;;;22.97;42.99;100662.16;5363898;32;35283;-76
2022/06/12 00:35:51;;;;;;;4.62;2.97;;;;;;;23.64;41.17;100650.87;5346586;32;46127;-76
2022/06/12 00:38:53;;;;;;;4.82;3.10;;;;;;;22.80;42.86;100650.19;5346541;32;35208;-68
2022/06/12 00:41:56;;;;;;;5.68;3.40;;;;;;;22.69;43.32;100652.94;5344156;32;35852;-77
2022/06/12 00:45:00;;;;;;;5.10;3.33;;;;;;;23.56;41.37;100647.16;5348467;32;34792;-77
2022/06/12 00:48:06;;;;;;;5.95;3.25;;;;;;;23.08;42.54;100654.03;5365876;32;34511;-76
2022/06/12 00:51:14;;;;;;;5.95;3.15;;;;;;;23.24;42.18;100648.16;5346536;32;34502;-68
2022/06/12 00:54:17;;;;;;;6.22;3.50;;;;;;;23.33;41.83;100631.28;5362517;32;35275;-68
2022/06/12 00:57:21;;;;;;;5.45;3.40;;;;;;;22.51;43.80;100638.44;5345575;32;34967;-76
2022/06/12 01:00:23;;;;;;;6.95;3.87;;;;;;;21.83;45.70;100643.19;5357873;32;47015;-77
2022/06/12 01:03:26;;;;;;;6.20;3.30;;;;;;;22.77;43.79;100637.06;5352180;32;35834;-77
2022/06/12 01:06:34;;;;;;;8.43;3.60;;;;;;;22.71;44.32;100629.53;5347274;32;34782;-78
2022/06/12 01:09:40;;;;;;;7.80;3.53;;;;;;;22.58;44.83;100636.94;5363834;32;34794;-78
2022/06/12 01:12:52;;;;;;;5.40;3.50;;;;;;;23.22;43.75;100628.69;5348444;32;34940;-77
2022/06/12 01:15:59;;;;;;;4.95;3.50;;;;;;;23.14;44.15;100628.53;5357790;32;44246;-75
2022/06/12 01:19:02;;;;;;;4.47;3.25;;;;;;;22.56;45.39;100626.34;5341338;32;34314;-69
2022/06/12 01:22:44;;;;;;;5.55;3.40;;;;;;;22.95;44.69;100631.97;5330134;32;33894;-77
2022/06/12 01:26:08;;;;;;;7.72;3.75;;;;;;;22.69;45.56;100626.16;5349703;32;34877;-76
2022/06/12 01:29:50;;;;;;;5.70;3.70;;;;;;;23.06;43.66;100626.53;5348547;32;35207;-68
2022/06/12 01:32:52;;;;;;;7.12;3.55;;;;;;;22.99;43.78;100636.06;5346229;32;34588;-75
2022/06/12 01:36:16;;;;;;;4.90;3.30;;;;;;;22.56;44.55;100634.38;5361097;32;37198;-68
2022/06/12 01:39:37;;;;;;;5.70;3.35;;;;;;;22.12;45.41;100622.06;5328984;32;35232;-68
2022/06/12 01:43:10;;;;;;;5.50;3.22;;;;;;;22.50;44.54;100626.87;5359935;32;35479;-67
2022/06/12 01:46:15;;;;;;;;;;;;;;;22.65;43.48;100614.00;5359281;32;36217;-76
2022/06/12 01:49:24;;;;;;;6.25;3.25;;;;;;;22.01;45.02;100625.59;5348223;32;34535;-68
2022/06/12 01:52:46;;;;;;;5.30;3.12;;;;;;;21.29;46.62;100623.47;5361233;32;45129;-68
2022/06/12 01:55:54;;;;;;;7.18;3.40;;;;;;;22.30;43.91;100614.34;5348149;32;34351;-77
2022/06/12 01:59:03;;;;;;;5.47;3.05;;;;;;;21.86;44.69;100617.03;5352896;32;46561;-76
2022/06/12 02:02:26;;;;;;;5.22;3.20;;;;;;;22.08;43.85;100616.09;5357899;32;35010;-67
2022/06/12 02:05:33;;;;;;;;;;;;;;;22.47;42.92;100611.06;5346473;32;44417;-77
2022/06/12 02:08:40;;;;;;;4.97;3.20;;;;;;;22.60;42.55;100616.22;5362002;32;35304;-69
2022/06/12 02:15:24;;;;;;;5.65;3.37;;;;;;;22.81;41.93;100619.75;5345587;32;36261;-68
2022/06/12 02:18:42;;;;;;;3.92;2.83;;;;;;;22.68;42.15;100614.59;5361348;32;44671;-76
2022/06/12 02:22:08;;;;;;;3.87;2.80;;;;;;;21.24;45.53;100619.44;5345401;32;35295;-68
2022/06/12 02:25:16;;;;;;;4.87;3.15;;;;;;;21.90;44.08;100620.31;5345233;32;34611;-68
2022/06/12 02:28:23;;;;;;;5.35;3.00;;;;;;;21.88;44.05;100617.75;5351373;32;35372;-67
2022/06/12 02:31:31;;;;;;;6.03;3.10;;;;;;;22.64;42.35;100626.53;5343530;32;44877;-76
2022/06/12 02:34:37;;;;;;;4.43;2.90;;;;;;;22.36;42.70;100627.22;5360456;32;34912;-69
2022/06/12 02:37:48;;;;;;;6.18;3.40;;;;;;;22.76;42.04;100624.63;5341309;32;34267;-68
2022/06/12 02:41:07;;;;;;;5.22;2.90;;;;;;;22.61;42.47;100634.84;5331620;32;46077;-75
2022/06/12 02:44:14;;;;;;;4.93;3.03;;;;;;;22.81;41.59;100632.28;5350295;32;34566;-69
2022/06/12 02:47:20;;;;;;;7.97;3.58;;;;;;;22.59;41.94;100631.44;5345653;32;35098;-67
2022/06/12 02:50:24;;;;;;;4.97;2.90;;;;;;;22.70;41.95;100627.84;5359628;32;44661;-69
2022/06/12 02:53:40;;;;;;;5.28;3.10;;;;;;;22.30;42.54;100638.44;5346957;32;34060;-76
2022/06/12 02:56:53;;;;;;;6.37;2.75;;;;;;;22.95;41.45;100631.97;5359856;32;35299;-76
2022/06/12 03:00:07;;;;;;;6.10;3.03;;;;;;;22.89;41.33;100636.03;5346640;32;47069;-76
2022/06/12 03:03:35;;;;;;;4.97;2.90;;;;;;;22.81;41.82;100638.50;5344301;32;34540;-76
2022/06/12 03:06:38;;;;;;;5.05;3.08;;;;;;;22.92;40.55;100632.22;5362153;32;35374;-77
2022/06/12 03:09:40;;;;;;;14.48;3.50;;;;;;;22.31;41.66;100635.62;5341697;32;34572;-76
2022/06/12 03:12:44;;;;;;;;;;;;;;;22.77;41.12;100649.59;5358436;32;35201;-77
2022/06/12 03:16:10;;;;;;;5.43;2.87;;;;;;;23.07;40.09;100636.25;5345789;32;34930;-68
2022/06/12 03:19:31;;;;;;;5.70;3.20;;;;;;;21.99;42.47;100638.28;5347162;32;35417;-69
2022/06/12 03:22:43;;;;;;;8.48;3.12;;;;;;;22.30;42.26;100643.78;5360796;32;34749;-68
2022/06/12 03:25:52;;;;;;;5.77;3.20;;;;;;;22.20;42.89;100645.53;5345611;32;34450;-68
2022/06/12 03:29:05;;;;;;;8.77;2.80;;;;;;;22.74;41.62;100639.16;5358066;32;43052;-68
2022/06/12 03:32:10;;;;;;;;;;;;;;;22.50;42.28;100644.78;5358654;32;34558;-68
2022/06/12 03:35:25;;;;;;;4.30;2.62;;;;;;;23.26;40.41;100637.31;5345794;32;35084;-77
2022/06/12 03:38:33;;;;;;;5.45;2.80;;;;;;;23.15;41.17;100640.94;5350994;32;44876;-76
2022/06/12 03:41:47;;;;;;;5.53;2.62;;;;;;;23.06;40.67;100644.44;5342504;32;34947;-75
2022/06/12 03:44:55;;;;;;;5.10;2.50;;;;;;;22.57;41.90;100648.62;5358447;32;35026;-76
2022/06/12 03:48:20;;;;;;;6.18;2.90;;;;;;;22.02;42.41;100648.72;5358524;32;44601;-76
2022/06/12 03:51:25;;;;;;;4.87;2.83;;;;;;;22.17;42.60;100658.19;5349368;32;45841;-69
2022/06/12 03:54:33;;;;;;;5.00;2.70;;;;;;;22.90;41.00;100650.28;5362577;32;34618;-76
2022/06/12 03:57:52;;;;;;;4.68;2.78;;;;;;;22.85;41.43;100653.31;5349311;32;34603;-69
2022/06/12 04:00:55;;;;;;;5.37;3.20;;;;;;;22.69;41.99;100653.78;5353729;32;44802;-77
2022/06/12 04:03:58;;;;;;;5.20;2.78;;;;;;;22.08;43.25;100656.22;5357229;32;35453;-68
2022/06/12 04:07:04;;;;;;;4.37;2.75;;;;;;;22.05;43.57;100661.00;5346522;32;34594;-76
2022/06/12 04:10:07;;;;;;;4.95;2.60;;;;;;;23.15;40.63;100660.56;5349498;32;34145;-76
2022/06/12 04:13:12;;;;;;;4.45;2.80;;;;;;;22.03;42.40;100666.50;5335170;32;37608;-76
2022/06/12 04:16:24;;;;;;;4.05;2.37;;;;;;;22.28;41.94;100664.47;5361762;32;34876;-68
2022/06/12 04:19:29;;;;;;;6.18;2.60;;;;;;;22.02;42.58;100659.41;5347189;32;44470;-76
2022/06/12 04:22:43;;;;;;;6.12;2.70;;;;;;;22.19;42.56;100666.09;5344783;32;34849;-68
2022/06/12 04:25:51;;;;;;;5.95;2.53;;;;;;;22.80;41.12;100665.41;5360856;32;34661;-69
2022/06/12 04:29:02;;;;;;;3.55;2.60;;;;;;;22.80;41.12;100663.59;5332106;32;46758;-70
2022/06/12 04:32:06;;;;;;;4.25;2.50;;;;;;;23.57;39.63;100671.19;5362377;32;34709;-69
2022/06/12 04:35:08;;;;;;;5.35;2.80;;;;;;;24.66;37.55;100662.09;5347807;32;34565;-77
2022/06/12 04:38:10;;;;;;;;;;;;;;;25.64;35.61;100652.72;5338945;32;34046;-75
2022/06/12 04:41:26;;;;;;;4.75;2.50;;;;;;;24.09;38.45;100662.94;5352807;32;34501;-67
2022/06/12 04:44:29;;;;;;;5.93;2.60;;;;;;;24.12;39.05;100666.19;5347107;32;46588;-68
2022/06/12 04:47:31;;;;;;;7.07;2.62;;;;;;;24.52;38.32;100673.28;5362186;32;34513;-68
2022/06/12 04:50:33;;;;;;;;;;;;;;;24.88;37.23;100666.31;5349954;32;34872;-75
2022/06/12 04:53:35;;;;;;;6.40;2.50;;;;;;;24.22;38.06;100676.97;5359671;32;33792;-76
2022/06/12 04:56:38;;;;;;;5.65;2.37;;;;;;;25.19;36.30;100672.34;5351968;32;34432;-78
2022/06/12 04:59:40;;;;;;;5.50;2.25;;;;;;;24.43;38.08;100674.16;5321224;32;35031;-77
2022/06/12 05:02:42;;;;;;;3.50;2.30;;;;;;;25.39;35.88;100665.88;5362581;32;34546;-67
2022/06/12 05:05:45;;;;;;;5.47;2.20;;;;;;;25.12;36.60;100665.84;5350352;32;34597;-76
2022/06/12 05:08:50;;;;;;;4.40;2.67;;;;;;;25.88;35.04;100669.16;5362450;32;34497;-76
2022/06/12 05:11:53;;;;;;;4.30;2.37;;;;;;;25.78;35.47;100664.84;5348012;32;46390;-78
2022/06/12 05:14:55;;;;;;;5.32;2.50;;;;;;;25.78;35.30;100664.84;5358280;32;34948;-69
2022/06/12 05:17:57;;;;;;;;;;;;;;;26.25;34.34;100649.31;5353810;32;35551;-77
2022/06/12 05:20:59;;;;;;;4.45;2.70;;;;;;;26.41;34.24;100673.75;5346780;32;35510;-77
2022/06/12 05:24:02;;;;;;;;;;;;;;;26.85;33.58;100670.19;5345662;32;34067;-69
2022/06/12 05:27:11;;;;;;;2.62;2.15;;;;;;;27.13;32.86;100677.16;5344244;32;34582;-76
2022/06/12 05:30:20;;;;;;;4.45;2.58;;;;;;;27.54;32.37;100671.94;5361191;32;35474;-68
2022/06/12 05:33:22;;;;;;;4.97;2.60;;;;;;;26.37;34.62;100677.72;5348392;32;45253;-76
2022/06/12 05:36:25;;;;;;;5.12;2.50;;;;;;;27.16;33.35;100678.69;5352929;32;34785;-68
2022/06/12 05:39:27;;;;;;;9.05;2.80;;;;;;;26.24;34.96;100671.88;5336649;32;34393;-71
2022/06/12 05:42:30;;;;;;;3.45;2.60;;;;;;;26.02;35.17;100685.78;5345500;32;34183;-77
2022/06/12 05:45:33;;;;;;;7.53;2.62;;;;;;;28.39;31.42;100679.94;5363368;32;34712;-76
2022/06/12 05:48:35;;;;;;;4.15;2.50;;;;;;;28.98;30.38;100675.19;5346046;32;35126;-68
2022/06/12 05:51:38;;;;;;;6.12;2.85;;;;;;;29.08;30.12;100682.09;5362897;32;34652;-68
2022/06/12 05:54:43;;;;;;;3.85;2.72;;;;;;;26.60;34.70;100678.13;5349171;32;35635;-68
2022/06/12 05:57:45;;;;;;;;;;;;;;;26.31;35.31;100685.56;5348331;32;36743;-68
2022/06/12 06:00:52;;;;;;;4.90;2.80;;;;;;;27.68;32.95;100682.13;5363732;32;47311;-76
2022/06/12 06:04:00;;;;;;;6.45;2.80;;;;;;;29.06;30.78;100689.56;5344566;32;34507;-69
2022/06/12 06:07:03;;;;;;;6.55;2.78;;;;;;;28.68;31.38;100693.81;5362643;32;34425;-76
2022/06/12 06:10:11;;;;;;;4.43;2.62;;;;;;;27.27;33.74;100700.84;5348687;32;35901;-78
2022/06/12 06:13:14;;;;;;;4.40;2.55;;;;;;;27.99;31.98;100709.41;5354179;32;34145;-77
2022/06/12 06:16:16;;;;;;;3.50;2.47;;;;;;;28.46;31.68;100700.72;5352360;32;35647;-79
2022/06/12 06:19:19;;;;;;;5.45;2.60;;;;;;;28.11;32.10;100684.78;5346541;32;34305;-70
2022/06/12 06:22:21;;;;;;;6.70;2.90;;;;;;;28.56;31.35;100698.72;5360812;32;44704;-75
2022/06/12 06:25:25;;;;;;;9.05;2.83;;;;;;;28.79;31.36;100703.44;5343863;32;34927;-77
2022/06/12 06:28:27;;;;;;;9.18;3.20;;;;;;;29.10;30.39;100699.00;5361871;32;34604;-78
2022/06/12 06:31:29;;;;;;;5.28;2.87;;;;;;;30.12;29.12;100696.44;5345504;32;34536;-77
2022/06/12 06:34:32;;;;;;;3.20;2.35;;;;;;;28.76;31.16;100695.66;5352378;32;34533;-77
2022/06/12 06:37:34;;;;;;;5.85;2.50;;;;;;;29.06;30.64;100699.53;5342221;32;34589;-78
2022/06/12 06:40:37;;;;;;;5.47;2.70;;;;;;;30.34;28.63;100692.06;5328219;32;35248;-69
2022/06/12 06:47:01;;;;;;;3.80;2.50;;;;;;;31.67;26.83;100687.66;5345844;32;34896;-71
2022/06/12 06:50:06;;;;;;;4.10;2.40;;;;;;;29.73;29.25;100693.75;5361769;32;34434;-70
2022/06/12 06:53:09;;;;;;;3.97;2.65;;;;;;;29.83;29.38;100697.09;5344295;32;35303;-68
2022/06/12 06:56:11;;;;;;;4.07;2.40;;;;;;;30.14;28.67;100695.25;5332462;32;32742;-77
2022/06/12 06:59:13;;;;;;;3.33;2.25;;;;;;;31.15;27.25;100688.59;5361447;32;34118;-69
2022/06/12 07:02:16;;;;;;;5.05;2.40;;;;;;;33.09;24.17;100690.53;5344705;32;33951;-76
2022/06/12 07:05:19;;;;;;;5.00;2.55;;;;;;;34.22;22.77;100676.38;5361425;32;35444;-69
2022/06/12 07:08:24;;;;;;;5.15;2.80;;;;;;;31.89;25.52;100696.72;5342834;32;45508;-70
2022/06/12 07:11:26;;;;;;;3.87;2.87;;;;;;;30.33;28.03;100701.19;5359242;32;34976;-78
2022/06/12 07:14:29;;;;;;;5.00;2.53;;;;;;;29.84;28.69;100699.62;5349370;32;34909;-70
2022/06/12 07:17:31;;;;;;;5.85;2.72;;;;;;;29.34;29.84;100691.84;5345013;32;34038;-77
2022/06/12 07:20:37;;;;;;;3.65;2.37;;;;;;;30.79;27.57;100687.63;5360218;32;34908;-76
2022/06/12 07:23:40;;;;;;;5.87;2.72;;;;;;;30.43;27.86;100689.06;5340176;32;35899;-69
2022/06/12 07:26:45;;;;;;;4.80;3.10;;;;;;;30.68;27.52;100695.19;5338832;32;35435;-78
2022/06/12 07:29:47;;;;;;;3.45;2.33;;;;;;;30.66;27.78;100689.06;5344406;32;34974;-77
2022/06/12 07:32:50;;;;;;;5.62;2.50;;;;;;;31.19;26.36;100679.06;5350693;32;45010;-69
2022/06/12 07:35:53;;;;;;;3.40;2.22;;;;;;;31.49;25.72;100684.47;5355445;32;34370;-77
2022/06/12 07:38:55;;;;;;;4.43;2.30;;;;;;;33.09;23.82;100674.19;5319858;32;256530;-78
2022/06/12 07:42:16;;;;;;;5.68;2.80;;;;;;;32.56;24.96;100677.34;5358667;32;34321;-77
2022/06/12 07:45:19;;;;;;;4.32;2.20;;;;;;;31.78;25.80;100678.16;5347995;32;34713;-76
2022/06/12 07:48:24;;;;;;;4.47;2.35;;;;;;;33.87;23.08;100675.62;5359583;32;43664;-69
2022/06/12 07:51:26;;;;;;;4.75;2.55;;;;;;;35.09;21.74;100662.72;5346625;32;36080;-77
2022/06/12 07:54:30;;;;;;;4.53;2.40;;;;;;;34.61;22.27;100663.84;5344766;32;35288;-69
2022/06/12 07:57:32;;;;;;;6.68;2.70;;;;;;;35.45;21.08;100663.06;5359907;32;34890;-68
2022/06/12 08:00:36;;;;;;;3.60;2.42;;;;;;;33.36;23.72;100667.00;5346452;32;34359;-69
2022/06/12 08:03:38;;;;;;;4.12;2.55;;;;;;;32.86;24.36;100666.28;5360137;32;35967;-69
2022/06/12 08:06:44;;;;;;;4.60;2.58;;;;;;;32.76;24.63;100661.16;5315022;32;33958;-78
2022/06/12 08:09:46;;;;;;;4.15;2.60;;;;;;;33.02;24.25;100665.16;5362139;32;34580;-70
2022/06/12 08:12:49;;;;;;;5.68;2.60;;;;;;;33.07;24.48;100665.41;5349965;32;35374;-78
2022/06/12 08:15:53;;;;;;;4.03;2.37;;;;;;;33.91;23.54;100654.28;5346691;32;44427;-78
2022/06/12 08:18:55;;;;;;;5.07;2.72;;;;;;;34.16;22.87;100658.13;5364058;32;34528;-79
2022/06/12 08:22:00;;;;;;;6.12;2.78;;;;;;;34.32;22.89;100662.31;5346477;32;34430;-69
2022/06/12 08:25:03;;;;;;;5.00;2.30;;;;;;;35.03;21.54;100653.50;5361824;32;34807;-78
2022/06/12 08:28:05;;;;;;;6.00;2.72;;;;;;;36.03;20.34;100653.97;5347040;32;34392;-79
2022/06/12 08:31:10;;;;;;;4.90;2.55;;;;;;;35.84;20.30;100657.63;5355129;32;35424;-69
2022/06/12 08:34:22;;;;;;;5.70;2.67;;;;;;;35.63;20.34;100653.34;5358643;32;35480;-79
2022/06/12 08:37:28;;;;;;;4.30;2.85;;;;;;;32.85;24.08;100654.56;5347310;32;47064;-70
2022/06/12 08:40:50;;;;;;;2.90;2.22;;;;;;;33.45;22.94;100648.66;5340073;32;34996;-70
2022/06/12 08:44:16;;;;;;;5.15;2.50;;;;;;;34.68;21.57;100648.28;5345106;32;46454;-71
2022/06/12 08:47:31;;;;;;;5.05;2.42;;;;;;;33.99;22.83;100654.09;5346898;32;35210;-77
2022/06/12 08:50:43;;;;;;;7.05;2.78;;;;;;;34.81;20.98;100647.44;5364232;32;35129;-70
2022/06/12 08:53:49;;;;;;;4.18;2.70;;;;;;;34.71;20.77;100653.31;5347433;32;33227;-70
2022/06/12 08:57:14;;;;;;;3.22;2.50;;;;;;;34.81;20.84;100646.59;5361652;32;44501;-69
2022/06/12 09:00:21;;;;;;;3.25;2.30;;;;;;;36.51;19.02;100656.16;5335715;32;34821;-79
2022/06/12 09:03:25;;;;;;;4.15;2.10;;;;;;;36.10;19.70;100645.72;5347463;32;44424;-78
2022/06/12 09:06:39;;;;;;;6.03;2.45;;;;;;;33.10;22.89;100651.38;5360491;32;34457;-77
2022/06/12 09:09:45;;;;;;;3.45;2.37;;;;;;;34.34;21.19;100645.75;5348457;32;35976;-79
2022/06/12 09:12:51;;;;;;;3.78;2.40;;;;;;;35.24;20.40;100642.31;5349011;32;34260;-78
2022/06/12 09:16:17;;;;;;;5.20;2.40;;;;;;;36.75;18.34;100636.13;5346347;32;44894;-70
2022/06/12 09:19:44;;;;;;;3.85;2.30;;;;;;;37.83;17.48;100635.53;5346582;32;43524;-70
2022/06/12 09:23:01;;;;;;;6.18;2.35;;;;;;;36.50;18.54;100629.84;5357848;32;34650;-78
2022/06/12 09:26:21;;;;;;;7.68;2.22;;;;;;;35.39;19.90;100636.59;5343811;32;32252;-71
2022/06/12 09:29:23;;;;;;;4.15;2.33;;;;;;;35.11;20.75;100634.16;5353473;32;44663;-78
2022/06/12 09:32:44;;;;;;;3.60;2.25;;;;;;;35.08;20.65;100639.22;5355331;32;34603;-77
2022/06/12 09:36:08;;;;;;;3.72;2.08;;;;;;;35.32;20.45;100635.78;5346999;32;35290;-77
2022/06/12 09:39:27;;;;;;;2.45;2.10;;;;;;;34.89;20.26;100630.81;5344669;32;34576;-70
2022/06/12 09:42:57;;;;;;;4.75;2.33;;;;;;;37.27;17.90;100627.59;5344001;32;45633;-79
2022/06/12 09:46:14;;;;;;;4.80;2.30;;;;;;;36.21;19.56;100636.81;5348258;32;35876;-78
2022/06/12 09:49:46;;;;;;;5.95;2.60;;;;;;;37.52;18.17;100617.38;5364574;32;34766;-69
2022/06/12 09:52:58;;;;;;;4.68;2.50;;;;;;;38.90;16.90;100619.03;5323353;32;34720;-70
2022/06/12 09:56:08;;;;;;;5.43;3.10;;;;;;;35.95;19.71;100618.69;5352682;32;34350;-79
2022/06/12 09:59:14;;;;;;;4.28;2.20;;;;;;;35.29;20.37;100608.88;5361101;32;34905;-77
2022/06/12 10:02:25;;;;;;;2.80;2.28;;;;;;;36.54;18.97;100606.44;5345599;32;34126;-69
2022/06/12 10:05:34;;;;;;;3.03;2.33;;;;;;;35.73;20.00;100605.31;5361170;32;47791;-69
2022/06/12 10:08:43;;;;;;;5.20;2.97;;;;;;;33.85;22.18;100612.28;5348397;32;34133;-70
2022/06/12 10:11:50;;;;;;;4.32;2.45;;;;;;;35.37;20.56;100589.50;5337246;32;33990;-70
2022/06/12 10:14:59;;;;;;;2.87;2.30;;;;;;;36.51;19.54;100587.72;5355174;32;44471;-77
2022/06/12 10:18:08;;;;;;;6.65;2.62;;;;;;;35.09;21.44;100587.09;5345655;32;36797;-77
2022/06/12 10:21:14;;;;;;;4.90;2.30;;;;;;;35.24;21.53;100579.47;5362303;32;34395;-69
2022/06/12 10:24:17;;;;;;;5.20;2.60;;;;;;;35.94;20.19;100587.78;5344969;32;34986;-70
2022/06/12 10:27:20;;;;;;;3.42;2.40;;;;;;;35.85;20.52;100588.22;5358241;32;44674;-71
2022/06/12 10:30:34;;;;;;;6.50;2.85;;;;;;;35.77;20.56;100581.12;5347412;32;34383;-70
2022/06/12 10:33:42;;;;;;;3.40;2.30;;;;;;;35.14;20.74;100581.00;5347596;32;34520;-69
2022/06/12 10:36:45;;;;;;;5.30;2.67;;;;;;;35.94;20.24;100579.56;5361180;32;35609;-77
2022/06/12 10:40:03;;;;;;;3.45;2.50;;;;;;;38.50;18.06;100577.69;5324895;32;35388;-70
2022/06/12 10:43:10;;;;;;;4.22;2.50;;;;;;;36.53;19.89;100572.75;5360879;32;35115;-78
2022/06/12 10:46:30;;;;;;;4.18;2.50;;;;;;;34.75;22.17;100574.56;5328664;32;35249;-69
2022/06/12 10:49:33;;;;;;;11.40;7.20;;;;;;;36.90;20.14;100561.84;5349189;32;34287;-69
2022/06/12 10:52:35;;;;;;;3.62;2.53;;;;;;;37.84;18.88;100559.56;5362000;32;34010;-78
2022/06/12 10:56:15;;;;;;;4.00;2.45;;;;;;;37.93;18.63;100558.16;5347066;32;33977;-69
2022/06/12 10:59:41;;;;;;;4.07;2.33;;;;;;;36.11;20.42;100568.06;5361466;32;34844;-78
2022/06/12 11:03:07;;;;;;;3.40;2.70;;;;;;;35.50;20.83;100573.09;5324839;32;35463;-77
2022/06/12 11:06:13;;;;;;;3.80;2.60;;;;;;;37.73;18.92;100555.69;5314026;32;35379;-77
2022/06/12 11:09:26;;;;;;;4.00;2.70;;;;;;;37.54;18.84;100557.66;5363484;32;34786;-77
2022/06/12 11:12:28;;;;;;;6.18;2.60;;;;;;;36.45;20.44;100548.41;5343169;32;44278;-71
2022/06/12 11:15:59;;;;;;;3.50;2.35;;;;;;;35.82;21.40;100553.97;5352977;32;35157;-70
2022/06/12 11:19:07;;;;;;;;;;;;;;;35.36;21.74;100556.91;5358300;32;35222;-70
2022/06/12 11:22:36;;;;;;;3.60;2.62;;;;;;;36.21;20.92;100549.25;5342243;32;34580;-75
2022/06/12 11:26:06;;;;;;;6.82;2.60;;;;;;;36.82;20.17;100543.78;5357312;32;35256;-70
2022/06/12 11:29:20;;;;;;;5.35;2.20;;;;;;;39.37;17.63;100541.94;5354538;32;34784;-70
2022/06/12 11:32:42;;;;;;;3.35;2.65;;;;;;;36.02;20.89;100553.84;5342785;32;44805;-70
2022/06/12 11:35:51;;;;;;;4.18;2.47;;;;;;;37.98;18.54;100538.25;5361701;32;34730;-77
2022/06/12 11:39:30;;;;;;;4.45;2.72;;;;;;;36.12;20.72;100542.37;5328516;32;45236;-77
2022/06/12 11:43:35;;;;;;;10.13;3.30;;;;;;;40.90;16.06;100530.69;5345727;32;34269;-70
2022/06/12 11:46:38;;;;;;;4.10;2.45;;;;;;;39.44;17.39;100533.56;5276051;32;34878;-77
2022/06/12 11:49:47;;;;;;;4.53;2.67;;;;;;;37.18;19.70;100535.81;5348151;32;34747;-77
2022/06/12 11:53:20;;;;;;;4.57;2.80;;;;;;;35.83;21.21;100539.22;5349898;32;35245;-77
2022/06/12 11:56:54;;;;;;;6.05;2.62;;;;;;;33.10;24.49;100523.38;5362395;32;35422;-69
2022/06/12 12:00:12;;;;;;;5.25;2.70;;;;;;;36.29;21.21;100527.91;5347771;32;45502;-70
2022/06/12 12:03:35;;;;;;;4.20;2.60;;;;;;;34.54;22.37;100528.44;5350134;32;34884;-78
2022/06/12 12:06:57;;;;;;;4.37;2.85;;;;;;;33.54;23.88;100527.53;5362673;32;35349;-77
2022/06/12 12:10:19;;;;;;;5.60;3.03;;;;;;;34.12;23.08;100519.63;5347007;32;44325;-70
2022/06/12 12:13:28;;;;;;;6.72;2.80;;;;;;;31.75;27.02;100524.53;5364684;32;44356;-79
2022/06/12 12:16:43;;;;;;;7.62;3.28;;;;;;;32.93;25.32;100513.91;5349873;32;35639;-77
2022/06/12 12:19:59;;;;;;;4.40;2.60;;;;;;;31.97;26.74;100511.78;5347917;32;34650;-71
2022/06/12 12:23:11;;;;;;;8.23;3.20;;;;;;;31.10;28.44;100517.28;5361249;32;34041;-79
2022/06/12 12:26:21;;;;;;;5.40;3.20;;;;;;;32.04;26.97;100501.78;5343138;32;34681;-77
2022/06/12 12:29:27;;;;;;;4.22;3.12;;;;;;;32.24;26.17;100501.94;5361054;32;47177;-68
2022/06/12 12:32:32;;;;;;;6.05;3.33;;;;;;;32.18;26.50;100491.84;5351472;32;35591;-79
2022/06/12 12:42:25;;;;;;;9.65;3.20;;;;;;;32.41;26.70;100496.25;5344092;32;44631;-76
2022/06/12 12:45:31;;;;;;;3.40;2.65;;;;;;;30.89;29.26;100499.09;5358768;32;35381;-70
2022/06/12 12:48:46;;;;;;;5.28;3.00;;;;;;;30.24;30.83;100498.97;5359000;32;34671;-78
2022/06/12 12:51:48;;;;;;;3.67;3.10;;;;;;;30.92;29.63;100495.16;5345829;32;34803;-78
2022/06/12 12:54:56;;;;;;;4.15;3.12;;;;;;;31.04;29.55;100488.19;5364080;32;44540;-79
2022/06/12 12:58:01;;;;;;;4.95;2.87;;;;;;;30.37;30.07;100485.59;5348318;32;35286;-70
2022/06/12 13:01:20;;;;;;;6.70;3.37;;;;;;;30.48;30.32;100490.56;5361346;32;34187;-78
2022/06/12 13:04:29;;;;;;;5.40;3.20;;;;;;;31.44;28.53;100473.22;5353175;32;45519;-76
2022/06/12 13:07:43;;;;;;;6.65;3.30;;;;;;;30.75;29.70;100478.25;5344787;32;34926;-71
2022/06/12 13:11:07;;;;;;;6.07;3.20;;;;;;;31.44;28.55;100472.38;5362442;32;36913;-76
2022/06/12 13:14:24;;;;;;;4.95;2.97;;;;;;;32.02;27.80;100467.72;5348273;32;34224;-69
2022/06/12 13:17:43;;;;;;;5.10;3.10;;;;;;;30.67;29.80;100471.06;5351888;32;34347;-69
2022/06/12 13:20:46;;;;;;;5.05;3.20;;;;;;;30.52;29.87;100472.88;5362714;32;34474;-76
2022/06/12 13:24:03;;;;;;;5.43;3.10;;;;;;;31.16;28.47;100459.53;5345261;32;35265;-76
2022/06/12 13:27:21;;;;;;;8.98;3.40;;;;;;;30.78;29.68;100460.75;5361676;32;34616;-69
2022/06/12 13:30:27;;;;;;;9.40;3.47;;;;;;;31.34;27.79;100459.12;5345723;32;47107;-69
2022/06/12 13:33:32;;;;;;;5.10;3.12;;;;;;;29.50;30.87;100464.34;5348994;32;34157;-70
2022/06/12 13:36:42;;;;;;;3.47;2.70;;;;;;;30.12;30.97;100466.06;5361240;32;35348;-77
2022/06/12 13:39:47;;;;;;;5.30;3.08;;;;;;;31.44;29.18;100465.09;5326078;32;34735;-70
2022/06/12 13:42:50;;;;;;;4.53;2.50;;;;;;;30.59;30.17;100460.28;5362845;32;44531;-76
2022/06/12 13:45:58;;;;;;;4.87;2.80;;;;;;;31.18;29.27;100454.75;5346759;32;34189;-69
2022/06/12 13:49:33;;;;;;;4.50;3.10;;;;;;;30.73;29.61;100461.31;5343422;32;34792;-70
2022/06/12 13:52:58;;;;;;;6.00;2.70;;;;;;;30.51;30.09;100456.81;5363855;32;35301;-77
2022/06/12 13:56:01;;;;;;;7.00;2.97;;;;;;;30.19;30.15;100454.28;5344775;32;34964;-71
2022/06/12 13:59:04;;;;;;;5.65;3.33;;;;;;;30.11;30.70;100445.41;5364402;32;34230;-73
2022/06/12 14:02:18;;;;;;;5.40;3.03;;;;;;;30.78;29.68;100447.16;5347243;32;34026;-77
2022/06/12 14:05:24;;;;;;;5.25;3.10;;;;;;;31.22;29.02;100438.91;5346858;32;42751;-77
2022/06/12 14:08:28;;;;;;;3.80;2.80;;;;;;;30.72;29.37;100452.34;5363948;32;34990;-69
2022/06/12 14:11:31;;;;;;;8.32;4.07;;;;;;;31.06;29.16;100445.44;5345274;32;34837;-72
2022/06/12 14:14:40;;;;;;;3.78;2.80;;;;;;;30.00;30.95;100451.22;5363769;32;34801;-77
2022/06/12 14:17:55;;;;;;;6.28;3.17;;;;;;;30.13;30.26;100449.59;5336986;32;34794;-68
2022/06/12 14:21:36;;;;;;;5.32;2.95;;;;;;;29.76;30.71;100449.63;5353750;32;44378;-68
2022/06/12 14:24:44;;;;;;;3.97;2.60;;;;;;;30.12;30.00;100436.25;5358013;32;35377;-76
2022/06/12 14:28:12;;;;;;;8.55;3.40;;;;;;;30.12;30.33;100442.50;5331053;32;34692;-77
2022/06/12 14:31:17;;;;;;;5.35;2.92;;;;;;;30.25;30.50;100441.84;5340164;32;35601;-77
2022/06/12 14:34:24;;;;;;;3.72;2.80;;;;;;;30.76;30.00;100443.81;5349260;32;42884;-78
2022/06/12 14:37:41;;;;;;;5.70;3.20;;;;;;;30.87;29.00;100436.03;5348124;32;34707;-69
2022/06/12 14:40:47;;;;;;;4.65;3.20;;;;;;;31.30;29.04;100427.09;5346530;32;35903;-76
2022/06/12 14:43:54;;;;;;;4.72;3.10;;;;;;;31.39;28.49;100432.22;5344216;32;37418;-75
2022/06/12 14:47:06;;;;;;;4.75;3.10;;;;;;;31.04;28.82;100425.75;5362895;32;34249;-77
2022/06/12 14:50:11;;;;;;;6.78;3.20;;;;;;;30.19;30.00;100426.34;5349149;32;36414;-78
2022/06/12 14:53:13;;;;;;;6.62;3.08;;;;;;;30.79;29.18;100430.72;5347703;32;34760;-70
2022/06/12 14:56:25;;;;;;;6.30;3.10;;;;;;;30.44;29.67;100432.31;5361193;32;34141;-71
2022/06/12 14:59:28;;;;;;;4.93;3.03;;;;;;;30.33;29.37;100425.47;5343209;32;44466;-68